sensor_id;sensor_type;location;lat;lon;timestamp;temperature;humidity
75008;DHT22;63554;48.940;12.050;2022-10-26T00:03:05;8.80;89.00
75008;DHT22;63554;48.940;12.050;2022-10-26T00:08:08;8.70;88.80
75008;DHT22;63554;48.940;12.050;2022-10-26T00:13:12;8.50;90.00
75008;DHT22;63554;48.940;12.050;2022-10-26T00:18:16;8.40;90.90
75008;DHT22;63554;48.940;12.050;2022-10-26T00:23:19;8.40;91.00
75008;DHT22;63554;48.940;12.050;2022-10-26T00:28:22;8.40;90.30
75008;DHT22;63554;48.940;12.050;2022-10-26T00:33:26;8.40;90.40
75008;DHT22;63554;48.940;12.050;2022-10-26T00:38:30;8.50;90.00
75008;DHT22;63554;48.940;12.050;2022-10-26T00:43:35;8.60;90.00
75008;DHT22;63554;48.940;12.050;2022-10-26T00:48:42;8.70;89.70
75008;DHT22;63554;48.940;12.050;2022-10-26T00:53:46;8.60;90.50
75008;DHT22;63554;48.940;12.050;2022-10-26T00:58:49;8.60;91.60
75008;DHT22;63554;48.940;12.050;2022-10-26T01:03:55;8.80;91.10
75008;DHT22;63554;48.940;12.050;2022-10-26T01:08:59;8.90;91.10
75008;DHT22;63554;48.940;12.050;2022-10-26T01:14:04;9.00;90.80
75008;DHT22;63554;48.940;12.050;2022-10-26T01:19:37;9.00;91.00
75008;DHT22;63554;48.940;12.050;2022-10-26T01:25:03;9.00;91.10
75008;DHT22;63554;48.940;12.050;2022-10-26T01:30:21;9.00;91.40
75008;DHT22;63554;48.940;12.050;2022-10-26T01:35:28;9.00;91.60
75008;DHT22;63554;48.940;12.050;2022-10-26T01:40:37;9.20;91.50
75008;DHT22;63554;48.940;12.050;2022-10-26T01:45:45;9.20;91.20
75008;DHT22;63554;48.940;12.050;2022-10-26T01:50:52;9.20;91.70
75008;DHT22;63554;48.940;12.050;2022-10-26T01:55:56;9.20;91.70
75008;DHT22;63554;48.940;12.050;2022-10-26T02:01:07;9.20;91.90
75008;DHT22;63554;48.940;12.050;2022-10-26T02:06:20;9.00;92.50
75008;DHT22;63554;48.940;12.050;2022-10-26T02:11:31;9.20;92.50
75008;DHT22;63554;48.940;12.050;2022-10-26T02:16:44;9.20;92.90
75008;DHT22;63554;48.940;12.050;2022-10-26T02:21:52;9.40;93.40
75008;DHT22;63554;48.940;12.050;2022-10-26T02:26:57;9.30;93.00
75008;DHT22;63554;48.940;12.050;2022-10-26T02:32:05;9.20;93.40
75008;DHT22;63554;48.940;12.050;2022-10-26T02:37:11;9.30;93.40
75008;DHT22;63554;48.940;12.050;2022-10-26T02:42:15;9.40;93.00
75008;DHT22;63554;48.940;12.050;2022-10-26T02:47:21;9.40;93.00
75008;DHT22;63554;48.940;12.050;2022-10-26T02:52:30;9.50;92.70
75008;DHT22;63554;48.940;12.050;2022-10-26T02:57:37;9.50;92.80
75008;DHT22;63554;48.940;12.050;2022-10-26T03:02:43;9.50;93.00
75008;DHT22;63554;48.940;12.050;2022-10-26T03:07:49;9.50;93.30
75008;DHT22;63554;48.940;12.050;2022-10-26T03:12:52;9.60;93.40
75008;DHT22;63554;48.940;12.050;2022-10-26T03:17:56;9.60;93.30
75008;DHT22;63554;48.940;12.050;2022-10-26T03:22:59;9.60;92.90
75008;DHT22;63554;48.940;12.050;2022-10-26T03:28:03;9.70;93.20
75008;DHT22;63554;48.940;12.050;2022-10-26T03:33:09;9.60;93.20
75008;DHT22;63554;48.940;12.050;2022-10-26T03:38:12;9.70;93.50
75008;DHT22;63554;48.940;12.050;2022-10-26T03:43:16;9.60;93.60
75008;DHT22;63554;48.940;12.050;2022-10-26T03:48:21;9.70;93.60
75008;DHT22;63554;48.940;12.050;2022-10-26T03:53:24;9.80;93.40
75008;DHT22;63554;48.940;12.050;2022-10-26T03:58:27;10.40;94.40
75008;DHT22;63554;48.940;12.050;2022-10-26T04:03:32;10.30;93.00
75008;DHT22;63554;48.940;12.050;2022-10-26T04:08:35;10.20;92.60
75008;DHT22;63554;48.940;12.050;2022-10-26T04:13:38;10.10;93.70
75008;DHT22;63554;48.940;12.050;2022-10-26T04:18:42;10.10;92.80
75008;DHT22;63554;48.940;12.050;2022-10-26T04:23:45;10.10;93.30
75008;DHT22;63554;48.940;12.050;2022-10-26T04:28:48;10.10;93.30
75008;DHT22;63554;48.940;12.050;2022-10-26T04:33:52;10.20;93.20
75008;DHT22;63554;48.940;12.050;2022-10-26T04:38:55;10.00;92.80
75008;DHT22;63554;48.940;12.050;2022-10-26T04:43:58;10.00;92.80
75008;DHT22;63554;48.940;12.050;2022-10-26T04:49:03;10.00;93.30
75008;DHT22;63554;48.940;12.050;2022-10-26T04:54:06;10.10;93.60
75008;DHT22;63554;48.940;12.050;2022-10-26T04:59:08;10.00;93.00
75008;DHT22;63554;48.940;12.050;2022-10-26T05:04:13;10.20;93.50
75008;DHT22;63554;48.940;12.050;2022-10-26T05:09:16;10.20;93.10
75008;DHT22;63554;48.940;12.050;2022-10-26T05:14:19;9.90;93.00
75008;DHT22;63554;48.940;12.050;2022-10-26T05:19:23;10.00;93.00
75008;DHT22;63554;48.940;12.050;2022-10-26T05:24:26;10.10;93.50
75008;DHT22;63554;48.940;12.050;2022-10-26T05:29:29;10.30;93.70
75008;DHT22;63554;48.940;12.050;2022-10-26T05:34:34;10.20;93.80
75008;DHT22;63554;48.940;12.050;2022-10-26T05:39:42;10.40;93.00
75008;DHT22;63554;48.940;12.050;2022-10-26T05:44:45;10.30;92.00
75008;DHT22;63554;48.940;12.050;2022-10-26T05:49:49;10.40;93.40
75008;DHT22;63554;48.940;12.050;2022-10-26T05:54:52;10.40;92.70
75008;DHT22;63554;48.940;12.050;2022-10-26T05:59:56;10.10;92.70
75008;DHT22;63554;48.940;12.050;2022-10-26T06:05:03;10.20;92.80
75008;DHT22;63554;48.940;12.050;2022-10-26T06:10:10;10.40;92.70
75008;DHT22;63554;48.940;12.050;2022-10-26T06:15:17;10.50;92.50
75008;DHT22;63554;48.940;12.050;2022-10-26T06:20:33;10.20;92.10
75008;DHT22;63554;48.940;12.050;2022-10-26T06:25:47;10.20;92.80
75008;DHT22;63554;48.940;12.050;2022-10-26T06:30:56;10.10;92.30
75008;DHT22;63554;48.940;12.050;2022-10-26T06:36:11;10.00;92.60
75008;DHT22;63554;48.940;12.050;2022-10-26T06:41:17;10.00;92.70
75008;DHT22;63554;48.940;12.050;2022-10-26T06:46:31;9.80;93.50
75008;DHT22;63554;48.940;12.050;2022-10-26T06:51:44;9.80;93.80
75008;DHT22;63554;48.940;12.050;2022-10-26T06:56:49;9.80;94.00
75008;DHT22;63554;48.940;12.050;2022-10-26T07:01:53;10.00;93.50
75008;DHT22;63554;48.940;12.050;2022-10-26T07:06:58;10.10;93.20
75008;DHT22;63554;48.940;12.050;2022-10-26T07:12:01;10.00;93.70
75008;DHT22;63554;48.940;12.050;2022-10-26T07:17:04;10.30;93.20
75008;DHT22;63554;48.940;12.050;2022-10-26T07:22:09;10.30;93.20
75008;DHT22;63554;48.940;12.050;2022-10-26T07:27:12;10.40;92.80
75008;DHT22;63554;48.940;12.050;2022-10-26T07:32:15;10.60;92.40
75008;DHT22;63554;48.940;12.050;2022-10-26T07:37:19;10.70;91.60
75008;DHT22;63554;48.940;12.050;2022-10-26T07:42:22;10.60;91.30
75008;DHT22;63554;48.940;12.050;2022-10-26T07:47:25;10.70;91.90
75008;DHT22;63554;48.940;12.050;2022-10-26T07:52:30;10.70;91.60
75008;DHT22;63554;48.940;12.050;2022-10-26T07:57:33;10.70;92.10
75008;DHT22;63554;48.940;12.050;2022-10-26T08:02:37;10.90;92.00
75008;DHT22;63554;48.940;12.050;2022-10-26T08:07:42;11.10;91.60
75008;DHT22;63554;48.940;12.050;2022-10-26T08:12:46;11.10;91.60
75008;DHT22;63554;48.940;12.050;2022-10-26T08:17:49;11.30;90.40
75008;DHT22;63554;48.940;12.050;2022-10-26T08:22:55;11.40;90.00
75008;DHT22;63554;48.940;12.050;2022-10-26T08:28:00;11.30;90.40
75008;DHT22;63554;48.940;12.050;2022-10-26T08:33:06;11.10;90.50
75008;DHT22;63554;48.940;12.050;2022-10-26T08:38:10;11.10;90.70
75008;DHT22;63554;48.940;12.050;2022-10-26T08:43:18;11.30;90.70
75008;DHT22;63554;48.940;12.050;2022-10-26T08:48:27;11.50;89.80
75008;DHT22;63554;48.940;12.050;2022-10-26T08:53:35;11.50;90.20
75008;DHT22;63554;48.940;12.050;2022-10-26T08:58:44;11.70;89.80
75008;DHT22;63554;48.940;12.050;2022-10-26T09:03:48;11.80;89.20
75008;DHT22;63554;48.940;12.050;2022-10-26T09:09:00;11.80;89.30
75008;DHT22;63554;48.940;12.050;2022-10-26T09:14:10;11.90;88.60
75008;DHT22;63554;48.940;12.050;2022-10-26T09:19:43;11.90;88.50
75008;DHT22;63554;48.940;12.050;2022-10-26T09:24:53;11.90;88.50
75008;DHT22;63554;48.940;12.050;2022-10-26T09:29:59;12.10;88.00
75008;DHT22;63554;48.940;12.050;2022-10-26T09:35:13;12.10;88.30
75008;DHT22;63554;48.940;12.050;2022-10-26T09:40:22;12.10;88.10
75008;DHT22;63554;48.940;12.050;2022-10-26T09:45:29;12.30;88.00
75008;DHT22;63554;48.940;12.050;2022-10-26T09:50:35;12.30;88.50
75008;DHT22;63554;48.940;12.050;2022-10-26T09:55:42;12.50;87.70
75008;DHT22;63554;48.940;12.050;2022-10-26T10:00:45;12.50;87.50
75008;DHT22;63554;48.940;12.050;2022-10-26T10:05:49;12.60;87.20
75008;DHT22;63554;48.940;12.050;2022-10-26T10:11:06;12.70;87.30
75008;DHT22;63554;48.940;12.050;2022-10-26T10:16:11;12.80;87.00
75008;DHT22;63554;48.940;12.050;2022-10-26T10:21:15;13.10;85.60
75008;DHT22;63554;48.940;12.050;2022-10-26T10:26:19;13.10;85.70
75008;DHT22;63554;48.940;12.050;2022-10-26T10:31:27;13.70;84.10
75008;DHT22;63554;48.940;12.050;2022-10-26T10:36:30;13.80;82.90
75008;DHT22;63554;48.940;12.050;2022-10-26T10:41:35;13.90;83.40
75008;DHT22;63554;48.940;12.050;2022-10-26T10:46:38;14.20;80.70
75008;DHT22;63554;48.940;12.050;2022-10-26T10:51:42;14.00;81.50
75008;DHT22;63554;48.940;12.050;2022-10-26T10:56:50;14.10;82.90
75008;DHT22;63554;48.940;12.050;2022-10-26T11:02:10;14.00;82.50
75008;DHT22;63554;48.940;12.050;2022-10-26T11:07:19;14.10;82.00
75008;DHT22;63554;48.940;12.050;2022-10-26T11:12:28;14.10;82.00
75008;DHT22;63554;48.940;12.050;2022-10-26T11:17:46;14.20;82.50
75008;DHT22;63554;48.940;12.050;2022-10-26T11:23:01;14.30;83.50
75008;DHT22;63554;48.940;12.050;2022-10-26T11:28:14;14.50;82.80
75008;DHT22;63554;48.940;12.050;2022-10-26T11:33:21;14.60;82.70
75008;DHT22;63554;48.940;12.050;2022-10-26T11:38:29;14.80;81.40
75008;DHT22;63554;48.940;12.050;2022-10-26T11:43:49;14.80;80.80
75008;DHT22;63554;48.940;12.050;2022-10-26T11:48:59;14.70;80.80
75008;DHT22;63554;48.940;12.050;2022-10-26T11:54:08;14.60;81.50
75008;DHT22;63554;48.940;12.050;2022-10-26T11:59:18;14.50;82.30
75008;DHT22;63554;48.940;12.050;2022-10-26T12:04:24;14.60;81.30
75008;DHT22;63554;48.940;12.050;2022-10-26T12:09:31;14.70;81.20
75008;DHT22;63554;48.940;12.050;2022-10-26T12:14:42;14.80;81.80
75008;DHT22;63554;48.940;12.050;2022-10-26T12:19:49;14.90;82.00
75008;DHT22;63554;48.940;12.050;2022-10-26T12:25:07;15.00;80.80
75008;DHT22;63554;48.940;12.050;2022-10-26T12:30:34;15.20;80.30
75008;DHT22;63554;48.940;12.050;2022-10-26T12:35:40;15.30;79.00
75008;DHT22;63554;48.940;12.050;2022-10-26T12:40:44;15.20;79.50
75008;DHT22;63554;48.940;12.050;2022-10-26T12:51:45;15.20;79.70
75008;DHT22;63554;48.940;12.050;2022-10-26T12:56:50;14.90;81.70
75008;DHT22;63554;48.940;12.050;2022-10-26T13:02:25;15.10;81.30
75008;DHT22;63554;48.940;12.050;2022-10-26T13:07:37;15.10;80.40
75008;DHT22;63554;48.940;12.050;2022-10-26T13:12:47;15.20;80.70
75008;DHT22;63554;48.940;12.050;2022-10-26T13:17:55;15.20;80.80
75008;DHT22;63554;48.940;12.050;2022-10-26T13:23:02;15.20;80.60
75008;DHT22;63554;48.940;12.050;2022-10-26T13:28:08;15.20;80.20
75008;DHT22;63554;48.940;12.050;2022-10-26T13:33:35;15.30;81.60
75008;DHT22;63554;48.940;12.050;2022-10-26T13:38:41;15.20;81.20
75008;DHT22;63554;48.940;12.050;2022-10-26T13:43:47;15.30;81.00
75008;DHT22;63554;48.940;12.050;2022-10-26T13:48:51;15.20;81.00
75008;DHT22;63554;48.940;12.050;2022-10-26T13:53:59;15.30;81.90
75008;DHT22;63554;48.940;12.050;2022-10-26T13:59:05;15.10;81.00
75008;DHT22;63554;48.940;12.050;2022-10-26T14:04:14;15.00;81.20
75008;DHT22;63554;48.940;12.050;2022-10-26T14:09:20;15.00;81.30
75008;DHT22;63554;48.940;12.050;2022-10-26T14:14:27;15.30;82.00
75008;DHT22;63554;48.940;12.050;2022-10-26T14:19:32;15.30;80.70
75008;DHT22;63554;48.940;12.050;2022-10-26T14:24:38;15.40;80.40
75008;DHT22;63554;48.940;12.050;2022-10-26T14:29:50;15.50;80.90
75008;DHT22;63554;48.940;12.050;2022-10-26T14:35:13;16.30;79.00
75008;DHT22;63554;48.940;12.050;2022-10-26T14:40:19;16.90;77.10
75008;DHT22;63554;48.940;12.050;2022-10-26T14:45:26;17.10;74.70
75008;DHT22;63554;48.940;12.050;2022-10-26T14:50:59;17.00;74.40
75008;DHT22;63554;48.940;12.050;2022-10-26T14:56:05;17.20;73.70
75008;DHT22;63554;48.940;12.050;2022-10-26T15:01:30;16.80;75.50
75008;DHT22;63554;48.940;12.050;2022-10-26T15:06:41;16.20;78.00
75008;DHT22;63554;48.940;12.050;2022-10-26T15:11:46;16.10;78.50
75008;DHT22;63554;48.940;12.050;2022-10-26T15:16:52;15.80;79.30
75008;DHT22;63554;48.940;12.050;2022-10-26T15:21:56;15.60;81.50
75008;DHT22;63554;48.940;12.050;2022-10-26T15:27:01;15.30;83.00
75008;DHT22;63554;48.940;12.050;2022-10-26T15:32:16;15.30;83.50
75008;DHT22;63554;48.940;12.050;2022-10-26T15:37:20;15.00;84.90
75008;DHT22;63554;48.940;12.050;2022-10-26T15:42:24;14.90;85.50
75008;DHT22;63554;48.940;12.050;2022-10-26T15:47:29;14.70;86.20
75008;DHT22;63554;48.940;12.050;2022-10-26T15:52:34;14.40;87.00
75008;DHT22;63554;48.940;12.050;2022-10-26T15:57:38;14.30;87.50
75008;DHT22;63554;48.940;12.050;2022-10-26T16:02:42;14.30;87.50
75008;DHT22;63554;48.940;12.050;2022-10-26T16:07:46;14.40;87.40
75008;DHT22;63554;48.940;12.050;2022-10-26T16:12:52;14.60;86.50
75008;DHT22;63554;48.940;12.050;2022-10-26T16:17:55;14.40;88.00
75008;DHT22;63554;48.940;12.050;2022-10-26T16:22:58;14.10;88.30
75008;DHT22;63554;48.940;12.050;2022-10-26T16:28:10;14.00;89.00
75008;DHT22;63554;48.940;12.050;2022-10-26T16:33:13;14.10;89.20
